Brooks, MN (56715)

3:48 PM CDT on October 21, 2014 (GMT -0500)
Rural Gentilly | Change Station
CLOSE
Current Station
Personal Weather Station
Location: Red Lake Falls, MN
Elevation: 1014 ft
Nearby Weather Stations

Elev 1014 ft 47.82 °N, 96.37 °W | Updated 1 minute ago

Clear
Clear
65.7 °F
Feels Like 65.7 °F
N
11.9
Wind Variable Wind from ESE

Today
High -- | Low -- °F
--% Chance of Precip.
Yesterday
High -- | Low -- °F
Precip. -- in
7:52 AM 6:24 PM
Waning Crescent, 4% visible
Pressure 29.97 in
Visibility 10.0 miles
Clouds Clear
Dew Point 44 °F
Humidity 46%
Rainfall 0.00 in
Snow Depth Not available.
UV 2 out of 12
Pollen 2.30 out of 12
Air Quality Not available.
Flu Activity Sporadic
METAR KFSE 212035Z AUTO 13013G19KT 10SM CLR 17/03 A2997 RMK AO2

More Conditions Fewer Conditions

Pressure 29.97 in
Visibility 10.0 miles
Clouds Clear
Dew Point 44 °F
Humidity 46%
Rainfall 0.00 in
Snow Depth Not available.
UV 2 out of 12
Pollen 2.30 out of 12
Air Quality Not available.
Flu Activity Sporadic
METAR KFSE 212035Z AUTO 13013G19KT 10SM CLR 17/03 A2997 RMK AO2

More Conditions Fewer Conditions

10-Day Weather Forecast

Almanac

Astronomy

Oct. 21, 2014 Rise Set
Actual Time 7:52 AM CDT 6:24 PM CDT
Civil Twilight 7:20 AM CDT 6:56 PM CDT
Nautical Twilight 6:44 AM CDT 7:32 PM CDT
Astronomical Twilight 6:08 AM CDT 8:07 PM CDT
Moon 5:28 AM CDT 5:26 PM CDT
Length of Visible Light 11h 35m
Length of Day
10h 32m
Tomorrow will be 3m 17s shorter.
Waning Crescent, 4% of the Moon is Illuminated
Today
Waning Crescent
Oct 23
New
Oct 30
First Quarter
Nov 6
Full
Nov 14
Last Quarter

Today's Extremes

State Highs State Lows

Community

WunderPhotos

Upload Photos

1,763,774 photos uploaded!

WunderBlogs® & News

Nearby

Snow Depth

Station Depth Elevation
No new snow has been reported.

Earthquake Activity

City Distance Mag. Time & Date
No recent earthquake activity has been reported nearby.
Minimum magnitude displayed is 2.5.

Coastal Water Temperatures

Place Temperature
No Stations Reporting

Nearby Weather Stations